HTSU

Sumbawanga Airport

Sumbawanga, Tanzania
METAR HTSU 201100Z 08008KT 9999 FEW021 21/07 Q1022
Observed Flight Rules
Jul-20 @ 11:00 UTC (4 hours ago) Visual Flight Rules
Wind Visibility Clouds
80° at 8 knots 10,000+ meters
  • Few at 2,100' AGL
Temperatures Readings
Current 21°C / 70°F
Dewpoint 7°C / 45°F
Humidity 40%
Altimeter 30.18" Hg
Pressure 1022 hPa
Elevation 1804
METAR HTSU 201100Z 08008KT 9999 FEW021 21/07 Q1022
Observed Flight Rules
Jul-20 @ 11:00 UTC
(4 hours ago)
VFR
Wind Visibility
80° at 8 knots 10,000+ meters
Clouds
  • Few at 2,100' AGL
Temperature Dewpoint
21°C / 70°F 7°C / 45°F
Humidity Altimeter Pressure
40% 30.18" Hg 1022 hPa